Terminal Aerodrome Forecast
Issued by NWS

Home | Current Version | Previous Version | Text Only | Print | Product List | Glossary On
Versions: 1 2 3 4 5 6 7 8 9 10 11 12 13 14 15 16
000
FTUS45 KTFX 200500
TAFHLN
TAF
KHLN 200539Z 2006/2106 VRB04KT P6SM VCSH SCT030 OVC050
      TEMPO 2006/2008 -SHSNRA
     FM200900 24006KT 6SM BR VCFG BKN020
     FM201600 VRB04KT P6SM SCT060 BKN120
     FM210000 18005KT P6SM OVC060=

USA.gov is the U.S. government's official web portal to all federal, state and local government web resources and services.